Terminal Aerodrome Forecast
Issued by NWS Mt. Holly, NJ

Home | Current Version | Previous Version | Text Only | Print | Product List | Glossary On
Versions: 1 2 3 4 5 6 7 8 9 10 11 12 13 14 15 16 17 18 19 20
000
FTUS41 KPHI 250500
TAFABE
TAF
KABE 250520Z 2506/2606 21018G24KT P6SM -SHRA BKN010 OVC025
     FM250900 27014KT P6SM -SHRA SCT010 BKN025
     FM251200 27014G24KT P6SM SCT035
      TEMPO 2514/2518 BKN035
     FM252200 29012KT P6SM SKC
     FM260000 30006KT P6SM SKC=

USA.gov is the U.S. government's official web portal to all federal, state and local government web resources and services.